Time;durP1;ratioP1;P1;durP2;ratioP2;P2;SDS_P1;SDS_P2;PMS_P1;PMS_P2;Temp;Humidity;BMP_temperature;BMP_pressure;BME280_temperature;BME280_humidity;BME280_pressure;Samples;Min_cycle;Max_cycle;Signal;HPM_P1;HPM_P2
2024/04/16 00:02:04;;;;;;;0.50;0.30;;;5.50;99.90;;;;;;5481391;26;20530;-78
2024/04/16 00:04:29;;;;;;;0.50;0.33;;;5.60;99.90;;;;;;5481609;26;20440;-78
2024/04/16 00:06:58;;;;;;;0.30;0.30;;;5.60;99.90;;;;;;5481570;26;20576;-79
2024/04/16 00:09:24;;;;;;;0.30;0.30;;;5.60;99.90;;;;;;5481463;26;20215;-79
2024/04/16 00:11:52;;;;;;;0.33;0.30;;;5.60;99.90;;;;;;5482022;26;20951;-78
2024/04/16 00:14:20;;;;;;;0.30;0.30;;;5.60;99.90;;;;;;5481744;26;20603;-78
2024/04/16 00:16:49;;;;;;;0.50;0.30;;;5.50;99.90;;;;;;5480106;26;21067;-78
2024/04/16 00:19:17;;;;;;;1.83;0.50;;;5.50;99.90;;;;;;5481760;26;20524;-78
2024/04/16 00:21:43;;;;;;;0.30;0.30;;;5.50;99.90;;;;;;5481788;26;20488;-78
2024/04/16 00:24:11;;;;;;;10.40;0.30;;;5.60;99.90;;;;;;5481479;26;20451;-78
2024/04/16 00:26:37;;;;;;;0.30;0.30;;;5.60;99.90;;;;;;5481142;26;20332;-78
2024/04/16 00:29:05;;;;;;;0.40;0.30;;;5.70;99.90;;;;;;5481802;26;20452;-78
2024/04/16 00:31:31;;;;;;;0.33;0.30;;;5.70;99.90;;;;;;5481226;26;20274;-78
2024/04/16 00:34:04;;;;;;;0.40;0.30;;;5.70;99.90;;;;;;5481861;26;20448;-78
2024/04/16 00:36:30;;;;;;;0.40;0.30;;;5.60;99.90;;;;;;5481610;26;20219;-78
2024/04/16 00:38:58;;;;;;;0.30;0.30;;;5.70;99.90;;;;;;5481279;26;20500;-78
2024/04/16 00:41:24;;;;;;;0.40;0.40;;;5.70;99.90;;;;;;5483089;26;20390;-78
2024/04/16 00:43:53;;;;;;;0.70;0.40;;;5.70;99.90;;;;;;5481895;26;20448;-78
2024/04/16 00:46:20;;;;;;;0.30;0.30;;;5.80;99.90;;;;;;5481833;26;20322;-78
2024/04/16 00:48:48;;;;;;;0.30;0.30;;;5.70;99.90;;;;;;5481686;26;20568;-78
2024/04/16 00:51:17;;;;;;;0.60;0.33;;;5.80;99.90;;;;;;5481872;26;20549;-78
2024/04/16 00:53:45;;;;;;;0.40;0.30;;;5.70;99.90;;;;;;5482312;26;20440;-78
2024/04/16 00:56:11;;;;;;;0.30;0.30;;;5.70;99.90;;;;;;5481780;26;20521;-79
2024/04/16 00:58:42;;;;;;;0.40;0.30;;;5.70;99.90;;;;;;5481478;26;20800;-79
2024/04/16 01:01:08;;;;;;;0.30;0.30;;;5.70;99.90;;;;;;5481716;26;20460;-79
2024/04/16 01:03:36;;;;;;;0.40;0.40;;;5.70;99.90;;;;;;5481601;26;20515;-79
2024/04/16 01:06:03;;;;;;;0.30;0.30;;;5.70;99.90;;;;;;5481536;26;20259;-79
2024/04/16 01:08:34;;;;;;;0.30;0.30;;;5.70;99.90;;;;;;5481460;26;20452;-79
2024/04/16 01:11:00;;;;;;;6.10;0.60;;;5.70;99.90;;;;;;5482425;26;20452;-80
2024/04/16 01:13:28;;;;;;;0.67;0.30;;;5.70;99.90;;;;;;5482778;26;20573;-81
2024/04/16 01:15:54;;;;;;;0.40;0.40;;;5.60;99.90;;;;;;5482970;26;20270;-81
2024/04/16 01:18:22;;;;;;;0.30;0.30;;;5.60;99.90;;;;;;5483918;26;21128;-81
2024/04/16 01:20:48;;;;;;;0.40;0.37;;;5.60;99.90;;;;;;5484450;26;20218;-81
2024/04/16 01:23:20;;;;;;;0.40;0.40;;;5.60;99.90;;;;;;5483865;26;20570;-81
2024/04/16 01:25:45;;;;;;;0.60;0.30;;;5.60;99.90;;;;;;5487624;26;20259;-79
2024/04/16 01:28:14;;;;;;;0.40;0.40;;;5.60;99.90;;;;;;5486891;26;20573;-79
2024/04/16 01:30:39;;;;;;;0.50;0.30;;;5.60;99.90;;;;;;5485619;26;20350;-79
2024/04/16 01:33:08;;;;;;;2.30;0.60;;;5.60;99.90;;;;;;5488079;26;20952;-79
2024/04/16 01:35:34;;;;;;;0.60;0.33;;;5.60;99.90;;;;;;5487945;26;20586;-79
2024/04/16 01:38:03;;;;;;;0.30;0.27;;;5.60;99.90;;;;;;5490256;26;20546;-78
2024/04/16 01:40:31;;;;;;;1.00;0.50;;;5.60;99.90;;;;;;5483249;26;20440;-78
2024/04/16 01:43:00;;;;;;;0.40;0.40;;;5.50;99.90;;;;;;5484519;26;20938;-78
2024/04/16 01:45:26;;;;;;;0.30;0.30;;;5.40;99.90;;;;;;5481054;26;20527;-78
2024/04/16 01:47:54;;;;;;;0.30;0.30;;;5.50;99.90;;;;;;5480607;26;20561;-78
2024/04/16 01:50:20;;;;;;;0.40;0.30;;;5.50;99.90;;;;;;5480719;26;20335;-78
2024/04/16 01:52:49;;;;;;;0.40;0.40;;;5.50;99.90;;;;;;5481439;26;20444;-78
2024/04/16 01:55:15;;;;;;;0.40;0.40;;;5.50;99.90;;;;;;5480987;26;20503;-78
2024/04/16 01:57:46;;;;;;;0.50;0.40;;;5.50;99.90;;;;;;5480885;26;20992;-78
2024/04/16 02:00:12;;;;;;;0.53;0.53;;;5.50;99.90;;;;;;5483695;26;20251;-80
2024/04/16 02:02:41;;;;;;;0.40;0.30;;;5.50;99.90;;;;;;5485089;26;20619;-80
2024/04/16 02:05:07;;;;;;;0.30;0.30;;;5.60;99.90;;;;;;5485024;26;20255;-80
2024/04/16 02:07:35;;;;;;;0.30;0.30;;;5.70;99.90;;;;;;5502283;26;20529;-80
2024/04/16 02:10:01;;;;;;;0.30;0.30;;;5.70;99.90;;;;;;5520761;25;20502;-80
2024/04/16 02:12:29;;;;;;;0.40;0.30;;;5.60;99.90;;;;;;5522011;25;20532;-80
2024/04/16 02:14:58;;;;;;;0.30;0.30;;;5.60;99.90;;;;;;5521726;25;20233;-80
2024/04/16 02:17:26;;;;;;;0.40;0.30;;;5.50;99.90;;;;;;5520246;25;20456;-80
2024/04/16 02:19:52;;;;;;;0.40;0.40;;;5.50;99.90;;;;;;5521365;25;20435;-80
2024/04/16 02:22:21;;;;;;;0.30;0.30;;;5.50;99.90;;;;;;5524702;25;20515;-80
2024/04/16 02:24:46;;;;;;;0.30;0.30;;;5.50;99.90;;;;;;5525223;25;20277;-80
2024/04/16 02:27:15;;;;;;;0.87;0.30;;;5.50;99.90;;;;;;5521610;25;20454;-80
2024/04/16 02:29:41;;;;;;;0.30;0.30;;;5.60;99.90;;;;;;5520491;25;20270;-80
2024/04/16 02:32:12;;;;;;;0.40;0.30;;;5.50;99.90;;;;;;5517314;25;20450;-80
2024/04/16 02:34:37;;;;;;;2.20;0.40;;;5.50;99.90;;;;;;5518108;25;20565;-80
2024/04/16 02:37:06;;;;;;;0.30;0.23;;;5.40;99.90;;;;;;5517764;25;20567;-80
2024/04/16 02:39:32;;;;;;;0.30;0.20;;;5.40;99.90;;;;;;5517600;25;20308;-80
2024/04/16 02:42:01;;;;;;;0.70;0.30;;;5.40;99.90;;;;;;5520756;25;20942;-80
2024/04/16 02:44:26;;;;;;;0.40;0.30;;;5.40;99.90;;;;;;5521652;25;20352;-80
2024/04/16 02:46:55;;;;;;;1.43;0.60;;;5.40;99.90;;;;;;5520969;25;20458;-80
2024/04/16 02:49:23;;;;;;;1.83;0.50;;;5.50;99.90;;;;;;5520846;25;20312;-80
2024/04/16 02:51:51;;;;;;;0.30;0.30;;;5.50;99.90;;;;;;5520648;25;20451;-80
2024/04/16 02:54:17;;;;;;;0.30;0.20;;;5.50;99.90;;;;;;5521063;25;20550;-80
2024/04/16 02:56:46;;;;;;;0.40;0.40;;;5.50;99.90;;;;;;5521010;25;20470;-80
2024/04/16 02:59:11;;;;;;;0.40;0.30;;;5.50;99.90;;;;;;5521480;25;20697;-80
2024/04/16 03:01:40;;;;;;;0.40;0.37;;;5.50;99.90;;;;;;5521086;25;20454;-80
2024/04/16 03:04:05;;;;;;;0.73;0.60;;;5.60;99.90;;;;;;5521193;25;20218;-80
2024/04/16 03:06:36;;;;;;;0.30;0.30;;;5.50;99.90;;;;;;5521292;25;21083;-80
2024/04/16 03:09:02;;;;;;;0.50;0.50;;;5.50;99.90;;;;;;5521141;25;20250;-80
2024/04/16 03:11:31;;;;;;;0.40;0.30;;;5.40;99.90;;;;;;5520875;25;20442;-80
2024/04/16 03:13:56;;;;;;;0.40;0.30;;;5.40;99.90;;;;;;5522253;25;20324;-80
2024/04/16 03:16:25;;;;;;;0.30;0.30;;;5.30;99.90;;;;;;5526667;25;20462;-80
2024/04/16 03:18:50;;;;;;;0.30;0.30;;;5.30;99.90;;;;;;5526328;25;20213;-80
2024/04/16 03:21:19;;;;;;;0.30;0.30;;;5.30;99.90;;;;;;5525495;25;20499;-80
2024/04/16 03:23:48;;;;;;;0.40;0.30;;;5.30;99.90;;;;;;5524293;25;20214;-80
2024/04/16 03:26:16;;;;;;;0.40;0.40;;;5.30;99.90;;;;;;5524546;25;20560;-80
2024/04/16 03:28:42;;;;;;;0.90;0.50;;;5.30;99.90;;;;;;5524837;25;20512;-80
2024/04/16 03:31:11;;;;;;;0.40;0.30;;;5.30;99.90;;;;;;5524499;25;20562;-80
2024/04/16 03:33:37;;;;;;;1.47;0.57;;;5.40;99.90;;;;;;5523768;25;20214;-80
2024/04/16 03:36:05;;;;;;;1.80;0.30;;;5.40;99.90;;;;;;5523770;25;20885;-80
2024/04/16 03:38:34;;;;;;;0.40;0.30;;;5.50;99.90;;;;;;5523463;25;20256;-80
2024/04/16 03:41:05;;;;;;;0.30;0.30;;;5.40;99.90;;;;;;5523288;25;20917;-80
2024/04/16 03:43:34;;;;;;;0.30;0.30;;;5.50;99.90;;;;;;5523525;25;20564;-80
2024/04/16 03:46:00;;;;;;;1.67;0.83;;;5.50;99.90;;;;;;5523191;25;20442;-80
2024/04/16 03:48:28;;;;;;;1.43;0.43;;;5.50;99.90;;;;;;5534422;25;20589;-80
2024/04/16 03:50:54;;;;;;;0.30;0.30;;;5.50;99.90;;;;;;5520232;25;20222;-80
2024/04/16 03:53:23;;;;;;;0.30;0.30;;;5.40;99.90;;;;;;5519552;25;21071;-80
2024/04/16 03:55:49;;;;;;;0.30;0.27;;;5.30;99.90;;;;;;5519608;25;20447;-80
2024/04/16 03:58:20;;;;;;;0.30;0.30;;;5.40;99.90;;;;;;5519169;25;20455;-80
2024/04/16 04:01:03;;;;;;;0.40;0.30;;;5.40;99.90;;;;;;5519035;25;20257;-79
2024/04/16 04:03:32;;;;;;;0.30;0.30;;;5.40;99.90;;;;;;5518960;25;20503;-80
2024/04/16 04:05:58;;;;;;;0.40;0.30;;;5.30;99.90;;;;;;5518963;25;20499;-80
2024/04/16 04:08:26;;;;;;;0.40;0.30;;;5.30;99.90;;;;;;5519313;25;21005;-79
2024/04/16 04:10:52;;;;;;;0.30;0.30;;;5.30;99.90;;;;;;5535677;25;20565;-80
2024/04/16 04:13:24;;;;;;;0.30;0.20;;;5.30;99.90;;;;;;5525415;25;20439;-80
2024/04/16 04:15:49;;;;;;;0.40;0.33;;;5.30;99.90;;;;;;5525282;25;20341;-80
2024/04/16 04:18:18;;;;;;;0.30;0.30;;;5.30;99.90;;;;;;5524677;25;20459;-80
2024/04/16 04:20:46;;;;;;;0.30;0.30;;;5.30;99.90;;;;;;5524012;25;20577;-80
2024/04/16 04:23:14;;;;;;;0.30;0.30;;;5.30;99.90;;;;;;5524878;25;20547;-80
2024/04/16 04:25:40;;;;;;;0.43;0.43;;;5.30;99.90;;;;;;5524209;25;20439;-80
2024/04/16 04:28:09;;;;;;;0.60;0.40;;;5.30;99.90;;;;;;5523674;25;20608;-80
2024/04/16 04:30:37;;;;;;;0.30;0.30;;;5.20;99.90;;;;;;5523856;25;20257;-80
2024/04/16 04:33:06;;;;;;;0.50;0.50;;;5.20;99.90;;;;;;5530477;25;20561;-80
2024/04/16 04:35:32;;;;;;;0.70;0.47;;;5.20;99.90;;;;;;5536751;25;20520;-80
2024/04/16 04:38:00;;;;;;;0.30;0.30;;;5.10;99.90;;;;;;5536659;25;20459;-80
2024/04/16 04:40:27;;;;;;;2.30;0.37;;;5.10;99.90;;;;;;5536480;25;20222;-80
2024/04/16 04:42:58;;;;;;;1.63;0.50;;;5.10;99.90;;;;;;5537276;25;20978;-80
2024/04/16 04:45:24;;;;;;;0.30;0.30;;;5.10;99.90;;;;;;5536490;25;20509;-80
2024/04/16 04:47:55;;;;;;;0.40;0.40;;;5.10;99.90;;;;;;5526739;25;20470;-81
2024/04/16 04:50:20;;;;;;;0.30;0.27;;;5.10;99.90;;;;;;5526432;25;20209;-80
2024/04/16 04:52:49;;;;;;;0.30;0.30;;;4.90;99.90;;;;;;5526042;25;20852;-80
2024/04/16 04:55:15;;;;;;;0.40;0.30;;;5.00;99.90;;;;;;5525202;25;20273;-80
2024/04/16 04:57:44;;;;;;;3.00;0.40;;;5.00;99.90;;;;;;5524523;25;20522;-80
2024/04/16 05:00:10;;;;;;;0.30;0.30;;;5.10;99.90;;;;;;5524841;25;20580;-80
2024/04/16 05:02:39;;;;;;;0.30;0.20;;;5.10;99.90;;;;;;5524175;25;20446;-80
2024/04/16 05:05:07;;;;;;;0.30;0.30;;;5.20;99.90;;;;;;5523775;25;20580;-80
2024/04/16 05:07:36;;;;;;;0.93;0.30;;;5.20;99.90;;;;;;5523425;25;20791;-80
2024/04/16 05:10:03;;;;;;;0.30;0.27;;;5.20;99.90;;;;;;5525384;25;20573;-80
2024/04/16 05:12:31;;;;;;;0.37;0.37;;;5.10;99.90;;;;;;5525383;25;20443;-80
2024/04/16 05:14:57;;;;;;;0.40;0.30;;;5.10;99.90;;;;;;5523921;25;20557;-80
2024/04/16 05:17:26;;;;;;;0.30;0.30;;;5.10;99.90;;;;;;5523498;25;20470;-80
2024/04/16 05:19:52;;;;;;;0.30;0.30;;;5.10;99.90;;;;;;5523235;25;20638;-80
2024/04/16 05:22:24;;;;;;;0.33;0.33;;;5.10;99.90;;;;;;5522809;25;20779;-80
2024/04/16 05:24:49;;;;;;;0.40;0.40;;;5.00;99.90;;;;;;5523774;25;20486;-80
2024/04/16 05:27:18;;;;;;;1.03;0.40;;;5.10;99.90;;;;;;5522778;25;20539;-80
2024/04/16 05:29:44;;;;;;;0.50;0.40;;;5.10;99.90;;;;;;5523674;25;20617;-80
2024/04/16 05:32:13;;;;;;;0.30;0.30;;;5.20;99.90;;;;;;5523987;25;20492;-80
2024/04/16 05:34:39;;;;;;;0.83;0.30;;;5.30;99.90;;;;;;5524313;25;20213;-80
2024/04/16 05:37:08;;;;;;;0.40;0.40;;;5.40;99.90;;;;;;5523784;25;20515;-80
2024/04/16 05:39:36;;;;;;;1.03;0.40;;;5.50;99.90;;;;;;5524122;25;20308;-80
2024/04/16 05:42:05;;;;;;;0.93;0.50;;;5.60;99.90;;;;;;5524231;25;20526;-80
2024/04/16 05:44:31;;;;;;;1.87;0.57;;;5.70;99.90;;;;;;5523101;25;20506;-80
2024/04/16 05:46:59;;;;;;;0.37;0.30;;;5.90;99.90;;;;;;5523851;25;20562;-80
2024/04/16 05:49:25;;;;;;;0.60;0.60;;;5.90;99.90;;;;;;5521528;25;20522;-80
2024/04/16 05:51:54;;;;;;;0.40;0.40;;;6.00;99.90;;;;;;5521767;25;20447;-80
2024/04/16 05:54:20;;;;;;;0.40;0.40;;;6.10;99.90;;;;;;5520997;25;20246;-80
2024/04/16 05:56:51;;;;;;;4.10;0.63;;;6.10;99.90;;;;;;5521052;25;20462;-80
2024/04/16 05:59:17;;;;;;;3.80;0.67;;;6.20;99.90;;;;;;5521589;25;20510;-80
2024/04/16 06:01:45;;;;;;;4.10;0.60;;;6.20;99.90;;;;;;5529583;25;20524;-80
2024/04/16 06:04:11;;;;;;;0.57;0.40;;;6.30;99.90;;;;;;5521390;25;20671;-80
2024/04/16 06:06:39;;;;;;;0.50;0.50;;;6.40;99.90;;;;;;5519343;25;20458;-80
2024/04/16 06:09:05;;;;;;;0.30;0.30;;;6.50;99.90;;;;;;5518576;25;20278;-80
2024/04/16 06:11:34;;;;;;;0.50;0.40;;;6.60;99.90;;;;;;5517797;25;20547;-80
2024/04/16 06:14:02;;;;;;;0.50;0.40;;;6.60;99.90;;;;;;5517505;25;20221;-80
2024/04/16 06:16:31;;;;;;;5.93;0.50;;;6.90;99.90;;;;;;5517525;25;20565;-80
2024/04/16 06:18:56;;;;;;;0.53;0.47;;;7.00;99.90;;;;;;5518150;25;21034;-80
2024/04/16 06:21:25;;;;;;;0.40;0.40;;;7.30;99.90;;;;;;5517773;25;20539;-80
2024/04/16 06:23:51;;;;;;;2.87;0.60;;;7.50;99.90;;;;;;5518863;25;20602;-80
2024/04/16 06:26:19;;;;;;;1.23;0.33;;;7.70;99.90;;;;;;5517962;25;20459;-80
2024/04/16 06:28:45;;;;;;;1.30;0.50;;;7.80;99.90;;;;;;5518141;25;20261;-80
2024/04/16 06:31:16;;;;;;;1.63;0.57;;;8.10;99.90;;;;;;5518156;25;20563;-80
2024/04/16 06:33:42;;;;;;;0.43;0.43;;;8.50;99.90;;;;;;5518126;25;20240;-80
2024/04/16 06:36:10;;;;;;;0.40;0.40;;;8.80;99.90;;;;;;5517900;25;20458;-80
2024/04/16 06:38:36;;;;;;;1.90;0.40;;;9.10;99.90;;;;;;5517713;25;20222;-80
2024/04/16 06:41:05;;;;;;;1.87;0.60;;;9.20;99.90;;;;;;5518945;25;20550;-80
2024/04/16 06:43:30;;;;;;;0.60;0.50;;;9.30;99.90;;;;;;5518720;25;20338;-80
2024/04/16 06:46:00;;;;;;;0.30;0.30;;;9.20;99.90;;;;;;5518636;25;20446;-80
2024/04/16 06:48:30;;;;;;;1.33;0.50;;;9.20;99.90;;;;;;5518889;25;20602;-81
2024/04/16 06:50:59;;;;;;;0.73;0.70;;;9.00;99.90;;;;;;5520209;25;20443;-80
2024/04/16 06:53:25;;;;;;;0.43;0.33;;;9.00;99.90;;;;;;5518853;25;20502;-80
2024/04/16 06:56:00;;;;;;;3.90;0.50;;;9.10;99.90;;;;;;5518095;25;20554;-80
2024/04/16 06:58:26;;;;;;;2.30;0.50;;;9.60;99.90;;;;;;5518294;25;20777;-80
2024/04/16 07:00:56;;;;;;;1.00;0.50;;;10.00;99.90;;;;;;5518602;25;20516;-80
2024/04/16 07:03:22;;;;;;;0.50;0.40;;;10.30;99.90;;;;;;5518697;25;20259;-81
2024/04/16 07:05:53;;;;;;;0.90;0.40;;;10.20;99.90;;;;;;5518293;25;20567;-81
2024/04/16 07:08:19;;;;;;;1.17;0.40;;;10.10;99.90;;;;;;5519999;25;20510;-80
2024/04/16 07:10:48;;;;;;;0.87;0.40;;;10.40;99.90;;;;;;5519910;25;20900;-80
2024/04/16 07:13:15;;;;;;;2.73;0.50;;;11.10;99.90;;;;;;5522644;25;20510;-81
2024/04/16 07:15:44;;;;;;;0.50;0.50;;;11.70;99.90;;;;;;5521755;25;20820;-81
2024/04/16 07:18:10;;;;;;;0.40;0.40;;;11.70;99.90;;;;;;5521630;25;20506;-81
2024/04/16 07:20:38;;;;;;;2.13;0.90;;;11.20;99.90;;;;;;5520938;25;20955;-81
2024/04/16 07:23:07;;;;;;;2.00;0.43;;;11.00;99.90;;;;;;5520952;25;20506;-81
2024/04/16 07:25:35;;;;;;;0.40;0.40;;;10.80;99.90;;;;;;5521141;25;20514;-81
2024/04/16 07:28:01;;;;;;;0.60;0.30;;;10.50;99.90;;;;;;5525113;25;20521;-81
2024/04/16 07:30:30;;;;;;;0.40;0.30;;;10.20;99.90;;;;;;5525261;25;20555;-80
2024/04/16 07:32:56;;;;;;;1.03;0.47;;;9.90;99.90;;;;;;5524640;25;20454;-81
2024/04/16 07:35:24;;;;;;;1.17;0.37;;;10.00;99.90;;;;;;5524172;25;20578;-81
2024/04/16 07:37:50;;;;;;;0.30;0.30;;;10.30;99.90;;;;;;5523801;25;20229;-81
2024/04/16 07:40:21;;;;;;;0.50;0.40;;;10.70;99.90;;;;;;5523958;25;20516;-81
2024/04/16 07:42:47;;;;;;;0.60;0.40;;;10.60;99.90;;;;;;5524085;25;20679;-81
2024/04/16 07:45:15;;;;;;;2.20;0.40;;;10.40;99.90;;;;;;5524883;25;20504;-81
2024/04/16 07:47:41;;;;;;;1.00;0.73;;;10.50;99.90;;;;;;5523762;25;20839;-81
2024/04/16 07:50:09;;;;;;;0.70;0.40;;;10.70;99.90;;;;;;5524202;25;20454;-81
2024/04/16 07:52:35;;;;;;;3.70;0.40;;;10.70;99.90;;;;;;5525695;25;20272;-81
2024/04/16 07:55:04;;;;;;;2.00;0.30;;;10.70;99.90;;;;;;5523685;25;20450;-81
2024/04/16 07:57:32;;;;;;;1.03;0.40;;;10.90;99.90;;;;;;5522425;25;20303;-81
2024/04/16 08:00:00;;;;;;;0.40;0.33;;;11.10;99.90;;;;;;5523152;25;20553;-81
2024/04/16 08:02:26;;;;;;;1.87;0.40;;;11.50;99.90;;;;;;5523774;25;20450;-82
2024/04/16 08:04:55;;;;;;;0.60;0.50;;;12.40;99.90;;;;;;5523287;25;20545;-81
2024/04/16 08:07:20;;;;;;;0.50;0.50;;;12.60;99.90;;;;;;5521473;25;20302;-81
2024/04/16 08:09:51;;;;;;;0.70;0.53;;;12.40;99.90;;;;;;5521977;25;20450;-80
2024/04/16 08:12:19;;;;;;;0.90;0.40;;;12.20;99.90;;;;;;5522747;25;20206;-81
2024/04/16 08:14:47;;;;;;;0.43;0.40;;;11.70;99.90;;;;;;5527419;25;20553;-81
2024/04/16 08:17:16;;;;;;;1.87;0.57;;;11.50;99.90;;;;;;5520198;25;20470;-81
2024/04/16 08:19:42;;;;;;;0.70;0.40;;;11.40;99.90;;;;;;5520447;25;20776;-81
2024/04/16 08:22:10;;;;;;;0.50;0.40;;;11.50;99.90;;;;;;5520327;25;20495;-81
2024/04/16 08:24:36;;;;;;;3.93;0.33;;;11.60;99.90;;;;;;5520937;25;20278;-81
2024/04/16 08:27:04;;;;;;;6.23;0.43;;;11.50;99.90;;;;;;5520017;25;20466;-81
2024/04/16 08:29:30;;;;;;;4.10;0.50;;;11.50;99.90;;;;;;5520631;25;20773;-81
2024/04/16 08:32:01;;;;;;;0.40;0.40;;;11.70;99.90;;;;;;5519905;25;20520;-81
2024/04/16 08:34:27;;;;;;;0.30;0.30;;;11.90;99.90;;;;;;5520600;25;20291;-81
2024/04/16 08:36:55;;;;;;;2.23;0.50;;;12.30;99.90;;;;;;5519801;25;20466;-80
2024/04/16 08:39:21;;;;;;;0.43;0.43;;;12.60;99.90;;;;;;5519887;25;20325;-80
2024/04/16 08:41:51;;;;;;;0.57;0.57;;;12.40;99.90;;;;;;5521292;25;20856;-79
2024/04/16 08:44:19;;;;;;;0.30;0.30;;;12.40;99.90;;;;;;5520878;25;20240;-80
2024/04/16 08:46:49;;;;;;;0.93;0.30;;;12.90;99.90;;;;;;5521042;25;20470;-80
2024/04/16 08:49:18;;;;;;;0.90;0.30;;;13.10;99.90;;;;;;5521457;25;20966;-80
2024/04/16 08:51:48;;;;;;;0.60;0.50;;;13.70;99.90;;;;;;5521143;26;20498;-80
2024/04/16 08:54:16;;;;;;;4.20;0.50;;;14.10;99.70;;;;;;5520829;25;20510;-80
2024/04/16 08:56:47;;;;;;;2.47;0.47;;;14.20;98.40;;;;;;5521046;25;20466;-80
2024/04/16 08:59:13;;;;;;;5.30;0.70;;;14.40;98.40;;;;;;5521908;25;20399;-80
2024/04/16 09:01:42;;;;;;;0.30;0.30;;;15.00;98.50;;;;;;5521157;25;20914;-80
2024/04/16 09:04:08;;;;;;;2.07;0.30;;;15.70;97.90;;;;;;5527452;25;20217;-80
2024/04/16 09:06:40;;;;;;;0.60;0.40;;;16.10;95.20;;;;;;5524411;25;20540;-79
2024/04/16 09:09:06;;;;;;;1.23;0.50;;;16.00;93.90;;;;;;5522251;25;20569;-79
2024/04/16 09:11:34;;;;;;;0.40;0.30;;;15.60;94.60;;;;;;5521973;25;20454;-80
2024/04/16 09:14:00;;;;;;;2.00;0.60;;;15.30;92.90;;;;;;5523861;25;20260;-80
2024/04/16 09:16:29;;;;;;;8.37;0.67;;;15.00;94.70;;;;;;5522724;25;20825;-80
2024/04/16 09:19:05;;;;;;;1.37;0.47;;;14.70;94.00;;;;;;5523056;25;20274;-80
2024/04/16 09:21:34;;;;;;;0.93;0.50;;;14.40;94.70;;;;;;5522659;25;20510;-80
2024/04/16 09:24:05;;;;;;;0.50;0.30;;;13.80;95.00;;;;;;5521992;25;20545;-80
2024/04/16 09:26:36;;;;;;;0.40;0.40;;;13.60;95.60;;;;;;5521934;25;20486;-80
2024/04/16 09:29:03;;;;;;;2.23;0.50;;;13.10;95.50;;;;;;5522509;25;20446;-80
2024/04/16 09:31:31;;;;;;;2.50;0.50;;;12.60;96.60;;;;;;5522563;25;20451;-80
2024/04/16 09:34:04;;;;;;;0.33;0.30;;;12.30;97.50;;;;;;5522088;25;20850;-80
2024/04/16 09:36:33;;;;;;;1.07;0.43;;;12.10;98.20;;;;;;5522083;25;20808;-80
2024/04/16 09:39:03;;;;;;;0.60;0.50;;;11.90;98.20;;;;;;5521444;25;20522;-80
2024/04/16 09:41:32;;;;;;;0.30;0.30;;;11.90;99.40;;;;;;5521643;25;20450;-80
2024/04/16 09:43:59;;;;;;;1.37;0.60;;;11.90;98.70;;;;;;5521297;25;20443;-80
2024/04/16 09:46:30;;;;;;;3.13;0.63;;;12.10;98.40;;;;;;5521197;25;20450;-80
2024/04/16 09:48:59;;;;;;;0.40;0.40;;;12.10;98.30;;;;;;5522002;25;20445;-80
2024/04/16 09:51:28;;;;;;;0.40;0.40;;;12.30;98.70;;;;;;5521390;25;20438;-80
2024/04/16 09:53:54;;;;;;;2.40;0.40;;;12.40;98.20;;;;;;5522727;25;20583;-80
2024/04/16 09:56:28;;;;;;;0.70;0.40;;;12.40;98.70;;;;;;5521426;25;20877;-80
2024/04/16 09:58:56;;;;;;;0.83;0.70;;;12.30;99.70;;;;;;5520496;25;20990;-80
2024/04/16 10:01:25;;;;;;;0.40;0.33;;;12.00;98.60;;;;;;5520824;25;20488;-80
2024/04/16 10:03:54;;;;;;;0.50;0.40;;;11.70;99.30;;;;;;5520168;25;20451;-80
2024/04/16 10:06:22;;;;;;;0.80;0.30;;;12.00;99.90;;;;;;5520828;25;20450;-79
2024/04/16 10:08:48;;;;;;;0.40;0.30;;;12.30;99.90;;;;;;5520796;25;20510;-80
2024/04/16 10:11:19;;;;;;;0.50;0.33;;;12.60;99.50;;;;;;5519997;25;20455;-80
2024/04/16 10:13:47;;;;;;;1.00;0.40;;;13.00;99.90;;;;;;5520999;25;20495;-79
2024/04/16 10:16:18;;;;;;;0.30;0.30;;;13.30;98.80;;;;;;5519436;25;20497;-79
2024/04/16 10:18:52;;;;;;;0.47;0.40;;;13.20;97.90;;;;;;5520745;25;20456;-79
2024/04/16 10:21:25;;;;;;;0.30;0.30;;;13.20;98.30;;;;;;5519446;25;20560;-79
2024/04/16 10:23:59;;;;;;;0.30;0.30;;;13.10;98.00;;;;;;5520538;25;20446;-80
2024/04/16 10:26:27;;;;;;;2.40;0.40;;;12.90;98.50;;;;;;5520441;25;21052;-79
2024/04/16 10:28:57;;;;;;;0.70;0.50;;;12.80;99.60;;;;;;5520917;25;20399;-80
2024/04/16 10:31:33;;;;;;;1.50;0.30;;;12.60;98.70;;;;;;5521169;25;20454;-79
2024/04/16 10:34:00;;;;;;;0.60;0.60;;;12.60;99.70;;;;;;5521423;25;20489;-80
2024/04/16 10:36:30;;;;;;;1.00;0.50;;;12.60;98.60;;;;;;5521132;25;20442;-79
2024/04/16 10:38:56;;;;;;;1.73;0.40;;;12.50;98.60;;;;;;5520873;25;20990;-79
2024/04/16 10:41:28;;;;;;;0.80;0.40;;;12.50;99.90;;;;;;5520481;25;20563;-79
2024/04/16 10:43:56;;;;;;;0.40;0.40;;;12.80;99.90;;;;;;5520014;25;20202;-79
2024/04/16 10:46:25;;;;;;;8.60;0.73;;;12.90;99.10;;;;;;5519785;25;20451;-79
2024/04/16 10:48:52;;;;;;;0.47;0.30;;;12.90;99.80;;;;;;5519395;25;20408;-79
2024/04/16 10:51:20;;;;;;;0.90;0.40;;;13.00;99.10;;;;;;5518012;25;20553;-80
2024/04/16 10:53:46;;;;;;;0.40;0.30;;;13.10;98.60;;;;;;5517902;25;20502;-80
2024/04/16 10:56:15;;;;;;;3.90;0.43;;;13.50;99.90;;;;;;5518719;25;20439;-79
2024/04/16 10:58:41;;;;;;;1.13;0.40;;;13.90;98.20;;;;;;5518366;25;20253;-79
2024/04/16 11:01:12;;;;;;;0.80;0.40;;;14.00;98.80;;;;;;5521026;25;20454;-79
2024/04/16 11:03:38;;;;;;;0.40;0.40;;;13.80;99.20;;;;;;5525376;25;20304;-79
2024/04/16 11:06:07;;;;;;;0.30;0.30;;;14.00;99.90;;;;;;5525114;25;20994;-79
2024/04/16 11:08:36;;;;;;;1.07;0.40;;;13.60;98.10;;;;;;5524963;25;20510;-80
2024/04/16 11:11:06;;;;;;;0.30;0.30;;;13.20;98.90;;;;;;5499283;25;20452;-79
2024/04/16 11:13:33;;;;;;;0.30;0.30;;;13.10;98.90;;;;;;5488362;26;20397;-80
2024/04/16 11:16:02;;;;;;;0.57;0.30;;;12.90;99.40;;;;;;5488925;26;20785;-79
2024/04/16 11:18:30;;;;;;;0.50;0.30;;;12.80;99.80;;;;;;5487671;26;20508;-79
2024/04/16 11:20:59;;;;;;;0.40;0.30;;;12.40;99.20;;;;;;5487746;26;20545;-79
2024/04/16 11:23:25;;;;;;;0.30;0.30;;;12.30;99.50;;;;;;5493873;26;20581;-79
2024/04/16 11:25:53;;;;;;;1.47;0.50;;;12.00;99.90;;;;;;5494920;26;20456;-79
2024/04/16 11:28:19;;;;;;;0.40;0.40;;;12.10;99.90;;;;;;5495008;26;20530;-79
2024/04/16 11:30:56;;;;;;;0.73;0.30;;;12.30;99.90;;;;;;5498678;26;20526;-79
2024/04/16 11:33:22;;;;;;;1.80;0.50;;;12.30;99.90;;;;;;5491841;26;20237;-79
2024/04/16 11:35:53;;;;;;;0.30;0.30;;;12.30;99.90;;;;;;5487809;26;20960;-79
2024/04/16 11:38:20;;;;;;;0.90;0.40;;;12.30;99.90;;;;;;5487371;26;20667;-80
2024/04/16 11:40:48;;;;;;;1.27;0.50;;;12.20;99.90;;;;;;5490220;26;20499;-80
2024/04/16 11:43:15;;;;;;;0.93;0.40;;;12.40;99.90;;;;;;5490257;26;20519;-80
2024/04/16 11:45:44;;;;;;;2.80;0.40;;;12.80;99.90;;;;;;5488910;26;20530;-79
2024/04/16 11:48:11;;;;;;;0.77;0.37;;;12.90;99.90;;;;;;5489685;26;20515;-80
2024/04/16 11:50:40;;;;;;;1.23;0.40;;;12.90;99.90;;;;;;5489721;26;20452;-79
2024/04/16 11:53:08;;;;;;;0.93;0.30;;;13.00;99.90;;;;;;5488412;26;20499;-79
2024/04/16 11:55:36;;;;;;;0.40;0.37;;;12.80;99.90;;;;;;5489719;26;20515;-80
2024/04/16 11:58:02;;;;;;;0.30;0.30;;;12.60;99.90;;;;;;5490029;26;20531;-80
2024/04/16 12:00:31;;;;;;;0.50;0.30;;;12.60;99.90;;;;;;5489946;26;20542;-79
2024/04/16 12:02:57;;;;;;;0.70;0.30;;;12.60;99.90;;;;;;5489878;26;20267;-80
2024/04/16 12:05:25;;;;;;;0.30;0.30;;;12.60;99.90;;;;;;5489130;26;20571;-80
2024/04/16 12:07:51;;;;;;;0.40;0.37;;;12.50;99.90;;;;;;5489758;26;20267;-79
2024/04/16 12:10:22;;;;;;;0.50;0.40;;;12.50;99.90;;;;;;5489643;26;20770;-80
2024/04/16 12:12:48;;;;;;;0.30;0.30;;;12.40;99.90;;;;;;5488558;26;20207;-80
2024/04/16 12:15:17;;;;;;;1.23;0.30;;;12.40;99.90;;;;;;5488773;26;20500;-80
2024/04/16 12:17:42;;;;;;;0.37;0.30;;;12.30;99.70;;;;;;5488169;26;20732;-80
2024/04/16 12:20:11;;;;;;;0.40;0.30;;;12.30;99.90;;;;;;5488042;26;20586;-79
2024/04/16 12:22:37;;;;;;;0.30;0.30;;;12.10;99.90;;;;;;5487268;26;20583;-79
2024/04/16 12:25:06;;;;;;;0.40;0.30;;;12.20;99.90;;;;;;5487434;26;20452;-79
2024/04/16 12:27:35;;;;;;;0.40;0.33;;;12.20;99.90;;;;;;5487463;26;20460;-78
2024/04/16 12:30:03;;;;;;;0.40;0.30;;;12.20;99.90;;;;;;5485736;26;20569;-79
2024/04/16 12:32:29;;;;;;;0.93;0.77;;;12.10;99.40;;;;;;5486487;26;20516;-78
2024/04/16 12:34:57;;;;;;;0.87;0.30;;;12.20;99.90;;;;;;5488159;26;20534;-80
2024/04/16 12:37:23;;;;;;;0.30;0.30;;;12.30;99.30;;;;;;5485882;26;20274;-80
2024/04/16 12:39:51;;;;;;;0.30;0.30;;;12.30;99.30;;;;;;5485954;26;20565;-80
2024/04/16 12:42:17;;;;;;;0.60;0.30;;;12.40;99.80;;;;;;5486154;26;20227;-80
2024/04/16 12:44:48;;;;;;;0.30;0.30;;;12.50;99.90;;;;;;5484980;26;20596;-80
2024/04/16 12:47:14;;;;;;;0.40;0.30;;;12.60;99.30;;;;;;5486171;26;20305;-80
2024/04/16 12:49:43;;;;;;;0.37;0.30;;;12.50;99.40;;;;;;5486053;26;20945;-80
2024/04/16 12:52:08;;;;;;;0.40;0.40;;;12.60;99.90;;;;;;5486928;26;20272;-80
2024/04/16 12:54:39;;;;;;;0.40;0.30;;;12.60;99.40;;;;;;5487820;26;20456;-80
2024/04/16 12:57:05;;;;;;;0.60;0.40;;;12.60;99.40;;;;;;5487089;26;20235;-80